TAM3490 SBRF-SBFZ
Flight info
| Callsign | TAM3490 |
|---|---|
| Flight time | 0h 58m |
| Altitude | 34000 |
| Route | IROSI UZ81 TENUB |
| Aircraft | A20N/M-SDE2E3FGHIRWXY/LB1 |
Departure
| Time | 2026-05-09 00:10 |
|---|---|
| Airport | Recife/Guararapes - Gilberto Freyre International Airport (SBRF) |
Arrival
| Time | 2026-05-09 01:08 |
|---|---|
| Airport | Pinto Martins International Airport (SBFZ) |
| Time | Latitude | Longitude | Altitude | Speed | Heading |
|---|---|---|---|---|---|
| 2026-05-08 23:52 | -8.13005 | -34.91959 | 41 ft | 0 kts | 72° |
| 2026-05-08 23:59 | -8.13007 | -34.91965 | 41 ft | 2 kts | 72° |
| 2026-05-08 23:59 | -8.13012 | -34.91981 | 40 ft | 2 kts | 72° |
| 2026-05-08 23:59 | -8.13017 | -34.91997 | 39 ft | 2 kts | 71° |
| 2026-05-09 00:00 | -8.13023 | -34.92012 | 41 ft | 2 kts | 68° |
| 2026-05-09 00:00 | -8.13030 | -34.92027 | 41 ft | 2 kts | 50° |
| 2026-05-09 00:00 | -8.13043 | -34.92033 | 41 ft | 1 kts | 348° |
| 2026-05-09 00:00 | -8.13045 | -34.92032 | 41 ft | 0 kts | 345° |
| 2026-05-09 00:03 | -8.13020 | -34.92039 | 34 ft | 8 kts | 343° |
| 2026-05-09 00:03 | -8.12954 | -34.92062 | 41 ft | 10 kts | 341° |
| 2026-05-09 00:04 | -8.12901 | -34.92080 | 41 ft | 6 kts | 344° |
| 2026-05-09 00:04 | -8.12869 | -34.92089 | 39 ft | 4 kts | 342° |
| 2026-05-09 00:04 | -8.12837 | -34.92100 | 40 ft | 6 kts | 341° |
| 2026-05-09 00:04 | -8.12785 | -34.92118 | 40 ft | 9 kts | 342° |
| 2026-05-09 00:05 | -8.12715 | -34.92142 | 40 ft | 11 kts | 340° |
| 2026-05-09 00:05 | -8.12657 | -34.92163 | 40 ft | 7 kts | 344° |
| 2026-05-09 00:05 | -8.12617 | -34.92174 | 40 ft | 5 kts | 343° |
| 2026-05-09 00:05 | -8.12589 | -34.92184 | 39 ft | 6 kts | 340° |
| 2026-05-09 00:06 | -8.12523 | -34.92205 | 38 ft | 14 kts | 343° |
| 2026-05-09 00:06 | -8.12410 | -34.92241 | 39 ft | 18 kts | 343° |
| 2026-05-09 00:06 | -8.12291 | -34.92280 | 38 ft | 18 kts | 341° |
| 2026-05-09 00:06 | -8.12174 | -34.92320 | 37 ft | 18 kts | 341° |
| 2026-05-09 00:07 | -8.12056 | -34.92357 | 36 ft | 17 kts | 342° |
| 2026-05-09 00:07 | -8.11943 | -34.92395 | 36 ft | 17 kts | 342° |
| 2026-05-09 00:07 | -8.11831 | -34.92431 | 34 ft | 17 kts | 341° |
| 2026-05-09 00:07 | -8.11721 | -34.92468 | 33 ft | 16 kts | 342° |
| 2026-05-09 00:08 | -8.11617 | -34.92507 | 34 ft | 15 kts | 329° |
| 2026-05-09 00:08 | -8.11539 | -34.92570 | 35 ft | 14 kts | 317° |
| 2026-05-09 00:08 | -8.11485 | -34.92638 | 35 ft | 10 kts | 268° |
| 2026-05-09 00:08 | -8.11521 | -34.92679 | 32 ft | 8 kts | 182° |
| 2026-05-09 00:09 | -8.11573 | -34.92671 | 35 ft | 6 kts | 161° |
| 2026-05-09 00:09 | -8.11613 | -34.92657 | 33 ft | 6 kts | 161° |
| 2026-05-09 00:09 | -8.11790 | -34.92596 | 34 ft | 58 kts | 161° |
| 2026-05-09 00:09 | -8.12370 | -34.92406 | 39 ft | 116 kts | 162° |
| 2026-05-09 00:10 | -8.13289 | -34.92099 | 96 ft | 153 kts | 158° |
| 2026-05-09 00:10 | -8.14259 | -34.91773 | 648 ft | 145 kts | 162° |
| 2026-05-09 00:10 | -8.15220 | -34.91501 | 1155 ft | 142 kts | 164° |
| 2026-05-09 00:10 | -8.16211 | -34.91568 | 1708 ft | 157 kts | 210° |
| 2026-05-09 00:11 | -8.16772 | -34.92558 | 2298 ft | 176 kts | 257° |
| 2026-05-09 00:11 | -8.16528 | -34.93838 | 2663 ft | 204 kts | 303° |
| 2026-05-09 00:11 | -8.15393 | -34.94791 | 2927 ft | 225 kts | 337° |
| 2026-05-09 00:11 | -8.13846 | -34.95263 | 3220 ft | 246 kts | 353° |
| 2026-05-09 00:12 | -8.12063 | -34.95471 | 3624 ft | 267 kts | 359° |
| 2026-05-09 00:12 | -8.10207 | -34.95870 | 4279 ft | 280 kts | 341° |
| 2026-05-09 00:12 | -8.08455 | -34.96782 | 5056 ft | 286 kts | 329° |
| 2026-05-09 00:12 | -8.06824 | -34.97967 | 5842 ft | 291 kts | 323° |
| 2026-05-09 00:13 | -8.05266 | -34.99292 | 6623 ft | 294 kts | 320° |
| 2026-05-09 00:13 | -8.03728 | -35.00673 | 7380 ft | 298 kts | 319° |
| 2026-05-09 00:13 | -8.02177 | -35.02070 | 8161 ft | 300 kts | 320° |
| 2026-05-09 00:13 | -8.00605 | -35.03458 | 8978 ft | 301 kts | 321° |
| 2026-05-09 00:14 | -7.99005 | -35.04836 | 9792 ft | 303 kts | 322° |
| 2026-05-09 00:14 | -7.97376 | -35.06215 | 10386 ft | 312 kts | 322° |
| 2026-05-09 00:14 | -7.95652 | -35.07653 | 10693 ft | 331 kts | 322° |
| 2026-05-09 00:14 | -7.93826 | -35.09166 | 10984 ft | 348 kts | 322° |
| 2026-05-09 00:15 | -7.91922 | -35.10741 | 11437 ft | 358 kts | 322° |
| 2026-05-09 00:15 | -7.89984 | -35.12347 | 12015 ft | 363 kts | 322° |
| 2026-05-09 00:15 | -7.88024 | -35.13974 | 12637 ft | 367 kts | 322° |
| 2026-05-09 00:15 | -7.86047 | -35.15617 | 13281 ft | 370 kts | 322° |
| 2026-05-09 00:16 | -7.84055 | -35.17271 | 13931 ft | 373 kts | 322° |
| 2026-05-09 00:16 | -7.82044 | -35.18943 | 14514 ft | 376 kts | 322° |
| 2026-05-09 00:16 | -7.80023 | -35.20622 | 15105 ft | 378 kts | 322° |
| 2026-05-09 00:16 | -7.77986 | -35.22315 | 15705 ft | 381 kts | 322° |
| 2026-05-09 00:17 | -7.75931 | -35.24021 | 16299 ft | 384 kts | 322° |
| 2026-05-09 00:17 | -7.73863 | -35.25739 | 16893 ft | 387 kts | 322° |
| 2026-05-09 00:17 | -7.71767 | -35.27478 | 17375 ft | 392 kts | 321° |
| 2026-05-09 00:17 | -7.69658 | -35.29229 | 17960 ft | 394 kts | 321° |
| 2026-05-09 00:18 | -7.67543 | -35.30984 | 18523 ft | 394 kts | 321° |
| 2026-05-09 00:18 | -7.65418 | -35.32748 | 18970 ft | 397 kts | 321° |
| 2026-05-09 00:18 | -7.63279 | -35.34522 | 19430 ft | 399 kts | 321° |
| 2026-05-09 00:18 | -7.61136 | -35.36301 | 19935 ft | 399 kts | 322° |
| 2026-05-09 00:19 | -7.59020 | -35.38057 | 20442 ft | 399 kts | 322° |
| 2026-05-09 00:19 | -7.56877 | -35.39835 | 20955 ft | 400 kts | 322° |
| 2026-05-09 00:19 | -7.54723 | -35.41620 | 21407 ft | 402 kts | 321° |
| 2026-05-09 00:19 | -7.52558 | -35.43415 | 21862 ft | 404 kts | 321° |
| 2026-05-09 00:20 | -7.50386 | -35.45215 | 22356 ft | 405 kts | 321° |
| 2026-05-09 00:20 | -7.48170 | -35.47052 | 22760 ft | 409 kts | 321° |
| 2026-05-09 00:20 | -7.45971 | -35.48875 | 23225 ft | 410 kts | 321° |
| 2026-05-09 00:20 | -7.43790 | -35.50682 | 23659 ft | 412 kts | 321° |
| 2026-05-09 00:21 | -7.41568 | -35.52527 | 23975 ft | 416 kts | 321° |
| 2026-05-09 00:21 | -7.39306 | -35.54424 | 24319 ft | 419 kts | 321° |
| 2026-05-09 00:21 | -7.37067 | -35.56313 | 24697 ft | 421 kts | 321° |
| 2026-05-09 00:21 | -7.34816 | -35.58217 | 25080 ft | 423 kts | 321° |
| 2026-05-09 00:22 | -7.32586 | -35.60104 | 25457 ft | 425 kts | 321° |
| 2026-05-09 00:22 | -7.30318 | -35.62022 | 25839 ft | 427 kts | 321° |
| 2026-05-09 00:22 | -7.28037 | -35.63950 | 26219 ft | 429 kts | 320° |
| 2026-05-09 00:22 | -7.25745 | -35.65885 | 26578 ft | 431 kts | 320° |
| 2026-05-09 00:23 | -7.23443 | -35.67828 | 26935 ft | 433 kts | 320° |
| 2026-05-09 00:23 | -7.21125 | -35.69783 | 27284 ft | 435 kts | 320° |
| 2026-05-09 00:23 | -7.18798 | -35.71746 | 27631 ft | 437 kts | 320° |
| 2026-05-09 00:23 | -7.16457 | -35.73719 | 27970 ft | 440 kts | 320° |
| 2026-05-09 00:24 | -7.14107 | -35.75699 | 28301 ft | 442 kts | 320° |
| 2026-05-09 00:24 | -7.11739 | -35.77690 | 28622 ft | 444 kts | 320° |
| 2026-05-09 00:24 | -7.09359 | -35.79677 | 28929 ft | 446 kts | 320° |
| 2026-05-09 00:24 | -7.06958 | -35.81672 | 29206 ft | 449 kts | 321° |
| 2026-05-09 00:25 | -7.04537 | -35.83680 | 29499 ft | 452 kts | 320° |
| 2026-05-09 00:25 | -7.02105 | -35.85699 | 29803 ft | 454 kts | 320° |
| 2026-05-09 00:25 | -6.99667 | -35.87728 | 30105 ft | 456 kts | 320° |
| 2026-05-09 00:25 | -6.97228 | -35.89760 | 30446 ft | 455 kts | 320° |
| 2026-05-09 00:26 | -6.94797 | -35.91787 | 30882 ft | 452 kts | 320° |
| 2026-05-09 00:26 | -6.92382 | -35.93800 | 31295 ft | 450 kts | 320° |
| 2026-05-09 00:26 | -6.89979 | -35.95804 | 31694 ft | 448 kts | 320° |
| 2026-05-09 00:26 | -6.87583 | -35.97801 | 32065 ft | 446 kts | 320° |
| 2026-05-09 00:27 | -6.85197 | -35.99790 | 32455 ft | 444 kts | 320° |
| 2026-05-09 00:27 | -6.82824 | -36.01767 | 32830 ft | 443 kts | 320° |
| 2026-05-09 00:27 | -6.80456 | -36.03740 | 33196 ft | 441 kts | 320° |
| 2026-05-09 00:27 | -6.78095 | -36.05706 | 33567 ft | 440 kts | 320° |
| 2026-05-09 00:28 | -6.75742 | -36.07666 | 33910 ft | 439 kts | 321° |
| 2026-05-09 00:28 | -6.73388 | -36.09626 | 34025 ft | 440 kts | 320° |
| 2026-05-09 00:28 | -6.71033 | -36.11587 | 34027 ft | 440 kts | 320° |
| 2026-05-09 00:29 | -6.66322 | -36.15508 | 34027 ft | 440 kts | 320° |
| 2026-05-09 00:29 | -6.61610 | -36.19430 | 34021 ft | 439 kts | 320° |
| 2026-05-09 00:30 | -6.56901 | -36.23348 | 34023 ft | 439 kts | 320° |
| 2026-05-09 00:30 | -6.52189 | -36.27267 | 34025 ft | 439 kts | 320° |
| 2026-05-09 00:31 | -6.47476 | -36.31186 | 34022 ft | 439 kts | 320° |
| 2026-05-09 00:31 | -6.42764 | -36.35104 | 34022 ft | 439 kts | 320° |
| 2026-05-09 00:32 | -6.38055 | -36.39018 | 34020 ft | 439 kts | 320° |
| 2026-05-09 00:32 | -6.33342 | -36.42936 | 34012 ft | 439 kts | 320° |
| 2026-05-09 00:33 | -6.28636 | -36.46858 | 34017 ft | 440 kts | 320° |
| 2026-05-09 00:33 | -6.23955 | -36.50752 | 34012 ft | 440 kts | 320° |
| 2026-05-09 00:34 | -6.19241 | -36.54669 | 34010 ft | 440 kts | 320° |
| 2026-05-09 00:34 | -6.14530 | -36.58582 | 34009 ft | 439 kts | 320° |
| 2026-05-09 00:35 | -6.09816 | -36.62496 | 34000 ft | 440 kts | 321° |
| 2026-05-09 00:35 | -6.05100 | -36.66410 | 34004 ft | 440 kts | 321° |
| 2026-05-09 00:36 | -6.00381 | -36.70325 | 34007 ft | 440 kts | 321° |
| 2026-05-09 00:36 | -5.95662 | -36.74239 | 33996 ft | 440 kts | 321° |
| 2026-05-09 00:37 | -5.91740 | -36.77491 | 33990 ft | 440 kts | 321° |
| 2026-05-09 00:37 | -5.87022 | -36.81403 | 33990 ft | 440 kts | 321° |
| 2026-05-09 00:38 | -5.82303 | -36.85314 | 33983 ft | 440 kts | 321° |
| 2026-05-09 00:38 | -5.77585 | -36.89224 | 33986 ft | 440 kts | 321° |
| 2026-05-09 00:39 | -5.72865 | -36.93135 | 33994 ft | 440 kts | 321° |
| 2026-05-09 00:39 | -5.68136 | -36.97052 | 33985 ft | 441 kts | 321° |
| 2026-05-09 00:40 | -5.63409 | -37.00967 | 33982 ft | 441 kts | 321° |
| 2026-05-09 00:40 | -5.58679 | -37.04883 | 33985 ft | 441 kts | 321° |
| 2026-05-09 00:41 | -5.51587 | -37.10753 | 33982 ft | 441 kts | 321° |
| 2026-05-09 00:41 | -5.46855 | -37.14669 | 33986 ft | 440 kts | 321° |
| 2026-05-09 00:42 | -5.42084 | -37.18541 | 33987 ft | 442 kts | 322° |
| 2026-05-09 00:42 | -5.37270 | -37.22392 | 33988 ft | 443 kts | 322° |
| 2026-05-09 00:43 | -5.32452 | -37.26244 | 33987 ft | 443 kts | 322° |
| 2026-05-09 00:43 | -5.27635 | -37.30102 | 33979 ft | 443 kts | 322° |
| 2026-05-09 00:44 | -5.22816 | -37.33965 | 33982 ft | 443 kts | 322° |
| 2026-05-09 00:44 | -5.18022 | -37.37859 | 33978 ft | 443 kts | 321° |
| 2026-05-09 00:45 | -5.13284 | -37.41822 | 33974 ft | 444 kts | 321° |
| 2026-05-09 00:45 | -5.08530 | -37.45800 | 33975 ft | 446 kts | 321° |
| 2026-05-09 00:46 | -5.03763 | -37.49785 | 33977 ft | 447 kts | 321° |
| 2026-05-09 00:46 | -4.98986 | -37.53777 | 33978 ft | 447 kts | 321° |
| 2026-05-09 00:47 | -4.94206 | -37.57771 | 33972 ft | 447 kts | 321° |
| 2026-05-09 00:47 | -4.89425 | -37.61764 | 33974 ft | 447 kts | 321° |
| 2026-05-09 00:48 | -4.84645 | -37.65757 | 33976 ft | 447 kts | 321° |
| 2026-05-09 00:48 | -4.79864 | -37.69748 | 33970 ft | 448 kts | 321° |
| 2026-05-09 00:49 | -4.75062 | -37.73757 | 33972 ft | 450 kts | 321° |
| 2026-05-09 00:49 | -4.70242 | -37.77779 | 33703 ft | 453 kts | 321° |
| 2026-05-09 00:50 | -4.67820 | -37.79801 | 32745 ft | 454 kts | 320° |
| 2026-05-09 00:50 | -4.65375 | -37.81841 | 31497 ft | 461 kts | 320° |
| 2026-05-09 00:50 | -4.62890 | -37.83913 | 30313 ft | 467 kts | 320° |
| 2026-05-09 00:50 | -4.60385 | -37.86004 | 29212 ft | 468 kts | 320° |
| 2026-05-09 00:51 | -4.57902 | -37.88075 | 28466 ft | 460 kts | 320° |
| 2026-05-09 00:51 | -4.55492 | -37.90086 | 27719 ft | 453 kts | 320° |
| 2026-05-09 00:51 | -4.53099 | -37.92082 | 27103 ft | 443 kts | 320° |
| 2026-05-09 00:51 | -4.50756 | -37.94037 | 26509 ft | 433 kts | 320° |
| 2026-05-09 00:52 | -4.48460 | -37.95944 | 25935 ft | 424 kts | 322° |
| 2026-05-09 00:52 | -4.46074 | -37.97631 | 25328 ft | 416 kts | 328° |
| 2026-05-09 00:52 | -4.43640 | -37.99151 | 24753 ft | 409 kts | 329° |
| 2026-05-09 00:52 | -4.41228 | -38.00621 | 24200 ft | 402 kts | 329° |
| 2026-05-09 00:53 | -4.38860 | -38.02061 | 23648 ft | 395 kts | 329° |
| 2026-05-09 00:53 | -4.36525 | -38.03483 | 23005 ft | 390 kts | 329° |
| 2026-05-09 00:53 | -4.34207 | -38.04897 | 22452 ft | 390 kts | 329° |
| 2026-05-09 00:53 | -4.31891 | -38.06310 | 21892 ft | 390 kts | 329° |
| 2026-05-09 00:54 | -4.29573 | -38.07725 | 21337 ft | 390 kts | 329° |
| 2026-05-09 00:54 | -4.27282 | -38.09176 | 20780 ft | 390 kts | 328° |
| 2026-05-09 00:54 | -4.25019 | -38.10674 | 20221 ft | 390 kts | 327° |
| 2026-05-09 00:54 | -4.22764 | -38.12178 | 19662 ft | 390 kts | 327° |
| 2026-05-09 00:55 | -4.20505 | -38.13687 | 19104 ft | 390 kts | 327° |
| 2026-05-09 00:55 | -4.18247 | -38.15193 | 18529 ft | 391 kts | 328° |
| 2026-05-09 00:55 | -4.15982 | -38.16703 | 17913 ft | 391 kts | 328° |
| 2026-05-09 00:55 | -4.13732 | -38.18202 | 17309 ft | 384 kts | 328° |
| 2026-05-09 00:56 | -4.11542 | -38.19662 | 16771 ft | 374 kts | 328° |
| 2026-05-09 00:56 | -4.09403 | -38.21088 | 16228 ft | 366 kts | 328° |
| 2026-05-09 00:56 | -4.07291 | -38.22494 | 15704 ft | 364 kts | 328° |
| 2026-05-09 00:56 | -4.05176 | -38.23902 | 15170 ft | 366 kts | 328° |
| 2026-05-09 00:57 | -4.03055 | -38.25313 | 14628 ft | 366 kts | 328° |
| 2026-05-09 00:57 | -4.00936 | -38.26724 | 14094 ft | 366 kts | 328° |
| 2026-05-09 00:57 | -3.98815 | -38.28136 | 13535 ft | 366 kts | 328° |
| 2026-05-09 00:57 | -3.96696 | -38.29546 | 12952 ft | 365 kts | 328° |
| 2026-05-09 00:58 | -3.94625 | -38.31013 | 12402 ft | 365 kts | 321° |
| 2026-05-09 00:58 | -3.93021 | -38.32970 | 11828 ft | 368 kts | 298° |
| 2026-05-09 00:58 | -3.92128 | -38.35370 | 11275 ft | 367 kts | 287° |
| 2026-05-09 00:58 | -3.91468 | -38.37835 | 10737 ft | 366 kts | 285° |
| 2026-05-09 00:59 | -3.90847 | -38.40278 | 10365 ft | 354 kts | 285° |
| 2026-05-09 00:59 | -3.90254 | -38.42594 | 10267 ft | 333 kts | 285° |
| 2026-05-09 00:59 | -3.89689 | -38.44776 | 10111 ft | 316 kts | 285° |
| 2026-05-09 00:59 | -3.89140 | -38.46873 | 9696 ft | 309 kts | 285° |
| 2026-05-09 01:00 | -3.88589 | -38.48957 | 9075 ft | 309 kts | 285° |
| 2026-05-09 01:00 | -3.88043 | -38.51022 | 8628 ft | 304 kts | 285° |
| 2026-05-09 01:00 | -3.87506 | -38.53047 | 8215 ft | 298 kts | 285° |
| 2026-05-09 01:00 | -3.86981 | -38.55045 | 7813 ft | 295 kts | 285° |
| 2026-05-09 01:01 | -3.86471 | -38.57026 | 7420 ft | 292 kts | 284° |
| 2026-05-09 01:01 | -3.85969 | -38.58989 | 7025 ft | 290 kts | 284° |
| 2026-05-09 01:01 | -3.85471 | -38.60936 | 6624 ft | 288 kts | 284° |
| 2026-05-09 01:01 | -3.84976 | -38.62872 | 6222 ft | 286 kts | 284° |
| 2026-05-09 01:02 | -3.84483 | -38.64798 | 5822 ft | 285 kts | 284° |
| 2026-05-09 01:02 | -3.83990 | -38.66723 | 5433 ft | 285 kts | 284° |
| 2026-05-09 01:02 | -3.83496 | -38.68630 | 5061 ft | 280 kts | 285° |
| 2026-05-09 01:02 | -3.82718 | -38.70394 | 4669 ft | 276 kts | 307° |
| 2026-05-09 01:03 | -3.81311 | -38.71645 | 4264 ft | 270 kts | 335° |
| 2026-05-09 01:03 | -3.79532 | -38.72091 | 3913 ft | 262 kts | 4° |
| 2026-05-09 01:03 | -3.77780 | -38.71828 | 3717 ft | 248 kts | 17° |
| 2026-05-09 01:03 | -3.76193 | -38.71344 | 3552 ft | 236 kts | 27° |
| 2026-05-09 01:04 | -3.74848 | -38.70455 | 3283 ft | 226 kts | 49° |
| 2026-05-09 01:04 | -3.74018 | -38.69187 | 2955 ft | 219 kts | 71° |
| 2026-05-09 01:04 | -3.73776 | -38.67728 | 2730 ft | 206 kts | 93° |
| 2026-05-09 01:04 | -3.74002 | -38.66367 | 2478 ft | 192 kts | 103° |
| 2026-05-09 01:05 | -3.74369 | -38.65104 | 1995 ft | 187 kts | 108° |
| 2026-05-09 01:05 | -3.74737 | -38.63905 | 1724 ft | 171 kts | 103° |
| 2026-05-09 01:05 | -3.75305 | -38.61743 | 1710 ft | 150 kts | 105° |
| 2026-05-09 01:06 | -3.75571 | -38.60787 | 1681 ft | 137 kts | 105° |
| 2026-05-09 01:06 | -3.75827 | -38.59871 | 1633 ft | 140 kts | 105° |
| 2026-05-09 01:06 | -3.76096 | -38.58921 | 1277 ft | 141 kts | 106° |
| 2026-05-09 01:06 | -3.76369 | -38.57993 | 944 ft | 137 kts | 105° |
| 2026-05-09 01:07 | -3.76613 | -38.57073 | 681 ft | 137 kts | 104° |
| 2026-05-09 01:07 | -3.76857 | -38.56151 | 472 ft | 136 kts | 103° |
| 2026-05-09 01:07 | -3.77103 | -38.55215 | 305 ft | 141 kts | 104° |
| 2026-05-09 01:07 | -3.77359 | -38.54277 | 107 ft | 138 kts | 104° |
| 2026-05-09 01:08 | -3.77582 | -38.53438 | 88 ft | 105 kts | 105° |
| 2026-05-09 01:08 | -3.77717 | -38.52943 | 87 ft | 39 kts | 105° |
| 2026-05-09 01:08 | -3.77758 | -38.52788 | 88 ft | 21 kts | 105° |
| 2026-05-09 01:08 | -3.77793 | -38.52657 | 85 ft | 13 kts | 109° |
| 2026-05-09 01:09 | -3.77849 | -38.52628 | 87 ft | 9 kts | 220° |
| 2026-05-09 01:09 | -3.77879 | -38.52677 | 89 ft | 8 kts | 240° |
| 2026-05-09 01:09 | -3.77905 | -38.52724 | 87 ft | 8 kts | 240° |
| 2026-05-09 01:09 | -3.77920 | -38.52771 | 86 ft | 7 kts | 276° |
| 2026-05-09 01:10 | -3.77909 | -38.52815 | 86 ft | 6 kts | 284° |
| 2026-05-09 01:10 | -3.77899 | -38.52857 | 85 ft | 6 kts | 285° |
| 2026-05-09 01:10 | -3.77888 | -38.52895 | 86 ft | 6 kts | 285° |
| 2026-05-09 01:10 | -3.77877 | -38.52935 | 87 ft | 7 kts | 284° |
| 2026-05-09 01:11 | -3.77860 | -38.53001 | 86 ft | 12 kts | 285° |
| 2026-05-09 01:11 | -3.77838 | -38.53085 | 89 ft | 12 kts | 285° |
| 2026-05-09 01:11 | -3.77816 | -38.53168 | 85 ft | 12 kts | 285° |
| 2026-05-09 01:11 | -3.77794 | -38.53250 | 87 ft | 12 kts | 285° |
| 2026-05-09 01:12 | -3.77773 | -38.53329 | 85 ft | 11 kts | 285° |
| 2026-05-09 01:12 | -3.77753 | -38.53404 | 88 ft | 11 kts | 285° |
| 2026-05-09 01:12 | -3.77733 | -38.53478 | 86 ft | 11 kts | 285° |
| 2026-05-09 01:12 | -3.77713 | -38.53550 | 85 ft | 11 kts | 285° |
| 2026-05-09 01:13 | -3.77693 | -38.53622 | 88 ft | 11 kts | 285° |
| 2026-05-09 01:13 | -3.77675 | -38.53691 | 86 ft | 10 kts | 283° |
| 2026-05-09 01:13 | -3.77662 | -38.53758 | 85 ft | 9 kts | 262° |
| 2026-05-09 01:13 | -3.77692 | -38.53808 | 88 ft | 8 kts | 238° |
| 2026-05-09 01:14 | -3.77722 | -38.53856 | 86 ft | 8 kts | 238° |
| 2026-05-09 01:14 | -3.77731 | -38.53898 | 86 ft | 5 kts | 288° |
| 2026-05-09 01:14 | -3.77718 | -38.53939 | 86 ft | 7 kts | 288° |
| 2026-05-09 01:14 | -3.77705 | -38.53994 | 88 ft | 8 kts | 281° |
| 2026-05-09 01:15 | -3.77726 | -38.54028 | 86 ft | 6 kts | 203° |
| 2026-05-09 01:15 | -3.77767 | -38.54047 | 88 ft | 6 kts | 205° |
| 2026-05-09 01:15 | -3.77776 | -38.54051 | 89 ft | 2 kts | 205° |
| 2026-05-09 01:15 | -3.77777 | -38.54052 | 89 ft | 0 kts | 205° |